Al Kazimiyah, Iraq
Current Conditions -  °F | °C
As of 4:00 PM on Sunday 23 Nov 2014 (Local Time) from ORBI Reporting Station
Broken Clouds Broken Clouds  
Wind Chill: 68°   Ceiling: 20000
Heat Index: 68°   Visibility: 6mi
Dew Point: 43°   Wind: 8mph
Humidity: 40%   Direction: 240°WSW
Pressure: 29.97"   Gusts: NA
Location:  33.31°N, 44.19°E
Report Text: ORBI 231300Z 24007KT 9999 SCT030 BKN200 20/06 Q1015 NOSIG
Loading
Personal Weather Stations






























Interactive Weather Map New forecast layout! Learn more

10-Day Weather Forecast

Advertisements
Track Severe Weather on mobile